sensor_id;sensor_type;location;lat;lon;timestamp;pressure;altitude;pressure_sealevel;temperature;humidity
57068;BME280;43391;47.448;18.904;2023-05-08T00:01:29;100146.16;;;8.58;100.00
57068;BME280;43391;47.448;18.904;2023-05-08T00:03:55;100145.25;;;8.59;100.00
57068;BME280;43391;47.448;18.904;2023-05-08T00:06:20;100147.78;;;8.60;99.84
57068;BME280;43391;47.448;18.904;2023-05-08T00:08:46;100143.75;;;8.51;100.00
57068;BME280;43391;47.448;18.904;2023-05-08T00:11:11;100142.97;;;8.48;100.00
57068;BME280;43391;47.448;18.904;2023-05-08T00:13:36;100144.72;;;8.47;100.00
57068;BME280;43391;47.448;18.904;2023-05-08T00:16:02;100141.53;;;8.39;100.00
57068;BME280;43391;47.448;18.904;2023-05-08T00:18:27;100151.34;;;8.29;100.00
57068;BME280;43391;47.448;18.904;2023-05-08T00:20:52;100147.97;;;8.27;100.00
57068;BME280;43391;47.448;18.904;2023-05-08T00:23:18;100142.66;;;8.32;100.00
57068;BME280;43391;47.448;18.904;2023-05-08T00:25:46;100151.34;;;8.29;100.00
57068;BME280;43391;47.448;18.904;2023-05-08T00:28:11;100150.69;;;8.22;100.00
57068;BME280;43391;47.448;18.904;2023-05-08T00:30:37;100150.72;;;8.21;100.00
57068;BME280;43391;47.448;18.904;2023-05-08T00:33:02;100143.91;;;8.18;100.00
57068;BME280;43391;47.448;18.904;2023-05-08T00:35:28;100148.47;;;8.11;100.00
57068;BME280;43391;47.448;18.904;2023-05-08T00:37:53;100150.97;;;8.13;100.00
57068;BME280;43391;47.448;18.904;2023-05-08T00:40:19;100147.41;;;8.17;100.00
57068;BME280;43391;47.448;18.904;2023-05-08T00:42:44;100156.59;;;7.99;100.00
57068;BME280;43391;47.448;18.904;2023-05-08T00:45:10;100163.59;;;7.95;100.00
57068;BME280;43391;47.448;18.904;2023-05-08T00:47:35;100160.25;;;7.92;100.00
57068;BME280;43391;47.448;18.904;2023-05-08T00:50:01;100162.81;;;7.93;100.00
57068;BME280;43391;47.448;18.904;2023-05-08T00:52:28;100159.41;;;7.91;100.00
57068;BME280;43391;47.448;18.904;2023-05-08T00:54:55;100160.31;;;7.90;100.00
57068;BME280;43391;47.448;18.904;2023-05-08T00:57:21;100152.97;;;8.05;100.00
57068;BME280;43391;47.448;18.904;2023-05-08T00:59:48;100158.50;;;7.92;100.00
57068;BME280;43391;47.448;18.904;2023-05-08T01:02:15;100163.16;;;7.81;100.00
57068;BME280;43391;47.448;18.904;2023-05-08T01:04:41;100169.31;;;7.77;100.00
57068;BME280;43391;47.448;18.904;2023-05-08T01:07:09;100169.41;;;7.74;100.00
57068;BME280;43391;47.448;18.904;2023-05-08T01:09:35;100170.34;;;7.71;100.00
57068;BME280;43391;47.448;18.904;2023-05-08T01:15:11;100172.66;;;7.80;100.00
57068;BME280;43391;47.448;18.904;2023-05-08T01:17:48;100184.69;;;7.81;100.00
57068;BME280;43391;47.448;18.904;2023-05-08T01:32:03;100198.63;;;7.46;100.00
57068;BME280;43391;47.448;18.904;2023-05-08T01:34:34;100197.09;;;7.38;100.00
57068;BME280;43391;47.448;18.904;2023-05-08T01:37:10;100199.78;;;7.35;100.00
57068;BME280;43391;47.448;18.904;2023-05-08T01:42:06;100198.13;;;7.33;100.00
57068;BME280;43391;47.448;18.904;2023-05-08T01:44:42;100199.81;;;7.34;100.00
57068;BME280;43391;47.448;18.904;2023-05-08T01:47:10;100198.19;;;7.29;100.00
57068;BME280;43391;47.448;18.904;2023-05-08T01:49:43;100198.13;;;7.33;100.00
57068;BME280;43391;47.448;18.904;2023-05-08T01:52:20;100204.81;;;7.40;100.00
57068;BME280;43391;47.448;18.904;2023-05-08T01:54:55;100208.97;;;7.46;100.00
57068;BME280;43391;47.448;18.904;2023-05-08T01:57:23;100204.66;;;7.44;100.00
57068;BME280;43391;47.448;18.904;2023-05-08T01:59:51;100210.72;;;7.43;100.00
57068;BME280;43391;47.448;18.904;2023-05-08T02:02:17;100204.81;;;7.40;100.00
57068;BME280;43391;47.448;18.904;2023-05-08T02:04:43;100210.88;;;7.39;100.00
57068;BME280;43391;47.448;18.904;2023-05-08T02:07:09;100210.84;;;7.40;100.00
57068;BME280;43391;47.448;18.904;2023-05-08T02:09:35;100215.94;;;7.42;100.00
57068;BME280;43391;47.448;18.904;2023-05-08T02:12:03;100222.19;;;7.33;100.00
57068;BME280;43391;47.448;18.904;2023-05-08T02:14:30;100213.97;;;7.18;100.00
57068;BME280;43391;47.448;18.904;2023-05-08T02:16:58;100212.28;;;7.17;100.00
57068;BME280;43391;47.448;18.904;2023-05-08T02:19:25;100218.16;;;7.23;100.00
57068;BME280;43391;47.448;18.904;2023-05-08T02:21:54;100216.50;;;7.20;100.00
57068;BME280;43391;47.448;18.904;2023-05-08T02:24:21;100220.19;;;7.11;100.00
57068;BME280;43391;47.448;18.904;2023-05-08T02:26:48;100218.41;;;7.13;100.00
57068;BME280;43391;47.448;18.904;2023-05-08T02:29:14;100212.44;;;7.11;100.00
57068;BME280;43391;47.448;18.904;2023-05-08T02:31:41;100211.66;;;7.09;100.00
57068;BME280;43391;47.448;18.904;2023-05-08T02:34:09;100221.19;;;7.05;100.00
57068;BME280;43391;47.448;18.904;2023-05-08T02:36:36;100214.34;;;7.04;100.00
57068;BME280;43391;47.448;18.904;2023-05-08T02:39:04;100211.69;;;7.08;100.00
57068;BME280;43391;47.448;18.904;2023-05-08T02:41:32;100212.56;;;7.07;100.00
57068;BME280;43391;47.448;18.904;2023-05-08T02:43:59;100216.19;;;6.99;100.00
57068;BME280;43391;47.448;18.904;2023-05-08T02:46:40;100225.63;;;7.00;100.00
57068;BME280;43391;47.448;18.904;2023-05-08T02:49:15;100228.25;;;6.99;100.00
57068;BME280;43391;47.448;18.904;2023-05-08T02:51:59;100225.88;;;6.91;100.00
57068;BME280;43391;47.448;18.904;2023-05-08T02:57:05;100227.81;;;6.81;100.00
57068;BME280;43391;47.448;18.904;2023-05-08T02:59:40;100223.78;;;6.71;100.00
57068;BME280;43391;47.448;18.904;2023-05-08T03:02:27;100221.94;;;6.76;100.00
57068;BME280;43391;47.448;18.904;2023-05-08T03:04:59;100225.38;;;6.76;100.00
57068;BME280;43391;47.448;18.904;2023-05-08T03:07:28;100221.94;;;6.76;100.00
57068;BME280;43391;47.448;18.904;2023-05-08T03:10:01;100226.16;;;6.78;100.00
57068;BME280;43391;47.448;18.904;2023-05-08T03:12:31;100228.00;;;6.73;100.00
57068;BME280;43391;47.448;18.904;2023-05-08T03:15:03;100228.13;;;6.69;100.00
57068;BME280;43391;47.448;18.904;2023-05-08T03:17:32;100230.66;;;6.72;100.00
57068;BME280;43391;47.448;18.904;2023-05-08T03:20:02;100230.56;;;6.75;100.00
57068;BME280;43391;47.448;18.904;2023-05-08T03:22:31;100232.22;;;6.77;100.00
57068;BME280;43391;47.448;18.904;2023-05-08T03:24:58;100232.19;;;6.79;100.00
57068;BME280;43391;47.448;18.904;2023-05-08T03:27:27;100234.72;;;6.81;100.00
57068;BME280;43391;47.448;18.904;2023-05-08T03:29:54;100235.63;;;6.80;100.00
57068;BME280;43391;47.448;18.904;2023-05-08T03:32:25;100231.28;;;6.80;100.00
57068;BME280;43391;47.448;18.904;2023-05-08T03:34:51;100240.69;;;6.83;100.00
57068;BME280;43391;47.448;18.904;2023-05-08T03:37:17;100237.22;;;6.84;100.00
57068;BME280;43391;47.448;18.904;2023-05-08T03:39:43;100236.28;;;6.86;100.00
57068;BME280;43391;47.448;18.904;2023-05-08T03:42:08;100241.44;;;6.88;100.00
57068;BME280;43391;47.448;18.904;2023-05-08T03:44:35;100244.81;;;6.90;100.00
57068;BME280;43391;47.448;18.904;2023-05-08T03:47:02;100234.47;;;6.90;100.00
57068;BME280;43391;47.448;18.904;2023-05-08T03:49:29;100242.16;;;6.93;100.00
57068;BME280;43391;47.448;18.904;2023-05-08T03:51:55;100245.63;;;6.92;100.00
57068;BME280;43391;47.448;18.904;2023-05-08T03:54:21;100241.41;;;6.89;100.00
57068;BME280;43391;47.448;18.904;2023-05-08T03:56:50;100243.06;;;6.92;100.00
57068;BME280;43391;47.448;18.904;2023-05-08T03:59:27;100248.97;;;6.96;100.00
57068;BME280;43391;47.448;18.904;2023-05-08T04:01:58;100252.31;;;6.99;100.00
57068;BME280;43391;47.448;18.904;2023-05-08T04:04:33;100252.25;;;7.02;100.00
57068;BME280;43391;47.448;18.904;2023-05-08T04:07:09;100249.56;;;7.07;100.00
57068;BME280;43391;47.448;18.904;2023-05-08T04:09:38;100256.31;;;7.13;100.00
57068;BME280;43391;47.448;18.904;2023-05-08T04:12:21;100261.28;;;7.21;100.00
57068;BME280;43391;47.448;18.904;2023-05-08T04:14:55;100256.69;;;7.30;100.00
57068;BME280;43391;47.448;18.904;2023-05-08T04:17:44;100258.28;;;7.36;100.00
57068;BME280;43391;47.448;18.904;2023-05-08T04:20:14;100264.16;;;7.43;100.00
57068;BME280;43391;47.448;18.904;2023-05-08T04:22:41;100265.66;;;7.50;100.00
57068;BME280;43391;47.448;18.904;2023-05-08T04:25:08;100275.75;;;7.60;100.00
57068;BME280;43391;47.448;18.904;2023-05-08T04:27:35;100279.09;;;7.63;100.00
57068;BME280;43391;47.448;18.904;2023-05-08T04:30:01;100279.00;;;7.66;100.00
57068;BME280;43391;47.448;18.904;2023-05-08T04:32:28;100276.88;;;7.81;100.00
57068;BME280;43391;47.448;18.904;2023-05-08T04:34:54;100282.59;;;7.92;100.00
57068;BME280;43391;47.448;18.904;2023-05-08T04:37:29;100286.69;;;8.01;100.00
57068;BME280;43391;47.448;18.904;2023-05-08T04:39:56;100285.66;;;8.05;100.00
57068;BME280;43391;47.448;18.904;2023-05-08T04:42:22;100291.63;;;8.09;100.00
57068;BME280;43391;47.448;18.904;2023-05-08T04:44:48;100299.16;;;8.17;100.00
57068;BME280;43391;47.448;18.904;2023-05-08T04:47:14;100304.03;;;8.26;100.00
57068;BME280;43391;47.448;18.904;2023-05-08T04:49:39;100304.75;;;8.31;100.00
57068;BME280;43391;47.448;18.904;2023-05-08T04:52:05;100302.94;;;8.35;100.00
57068;BME280;43391;47.448;18.904;2023-05-08T04:54:31;100313.28;;;8.35;100.00
57068;BME280;43391;47.448;18.904;2023-05-08T04:56:56;100314.75;;;8.44;100.00
57068;BME280;43391;47.448;18.904;2023-05-08T04:59:22;100317.16;;;8.50;100.00
57068;BME280;43391;47.448;18.904;2023-05-08T05:01:49;100311.97;;;8.50;100.00
57068;BME280;43391;47.448;18.904;2023-05-08T05:04:14;100311.94;;;8.51;100.00
57068;BME280;43391;47.448;18.904;2023-05-08T05:06:39;100316.84;;;8.61;100.00
57068;BME280;43391;47.448;18.904;2023-05-08T05:09:05;100315.88;;;8.63;100.00
57068;BME280;43391;47.448;18.904;2023-05-08T05:11:30;100324.38;;;8.69;100.00
57068;BME280;43391;47.448;18.904;2023-05-08T05:13:56;100323.34;;;8.74;100.00
57068;BME280;43391;47.448;18.904;2023-05-08T05:16:21;100323.06;;;8.84;100.00
57068;BME280;43391;47.448;18.904;2023-05-08T05:18:46;100314.94;;;8.95;100.00
57068;BME280;43391;47.448;18.904;2023-05-08T05:21:12;100323.22;;;9.06;100.00
57068;BME280;43391;47.448;18.904;2023-05-08T05:23:38;100324.75;;;9.12;100.00
57068;BME280;43391;47.448;18.904;2023-05-08T05:26:03;100316.69;;;9.21;100.00
57068;BME280;43391;47.448;18.904;2023-05-08T05:28:29;100325.94;;;9.28;100.00
57068;BME280;43391;47.448;18.904;2023-05-08T05:30:54;100326.47;;;9.38;100.00
57068;BME280;43391;47.448;18.904;2023-05-08T05:33:20;100327.16;;;9.43;100.00
57068;BME280;43391;47.448;18.904;2023-05-08T05:35:45;100325.75;;;9.60;100.00
57068;BME280;43391;47.448;18.904;2023-05-08T05:38:10;100321.06;;;9.70;100.00
57068;BME280;43391;47.448;18.904;2023-05-08T05:40:36;100326.88;;;9.77;100.00
57068;BME280;43391;47.448;18.904;2023-05-08T05:43:01;100323.16;;;9.84;100.00
57068;BME280;43391;47.448;18.904;2023-05-08T05:45:26;100334.13;;;9.92;100.00
57068;BME280;43391;47.448;18.904;2023-05-08T05:47:52;100339.75;;;10.04;98.79
57068;BME280;43391;47.448;18.904;2023-05-08T05:50:19;100338.63;;;10.11;96.90
57068;BME280;43391;47.448;18.904;2023-05-08T05:52:45;100342.69;;;10.18;97.62
57068;BME280;43391;47.448;18.904;2023-05-08T05:55:11;100343.25;;;10.27;95.65
57068;BME280;43391;47.448;18.904;2023-05-08T05:57:36;100347.13;;;10.39;94.10
57068;BME280;43391;47.448;18.904;2023-05-08T06:00:03;100342.34;;;10.52;89.60
57068;BME280;43391;47.448;18.904;2023-05-08T06:02:29;100355.34;;;10.52;88.13
57068;BME280;43391;47.448;18.904;2023-05-08T06:04:54;100347.31;;;10.58;88.06
57068;BME280;43391;47.448;18.904;2023-05-08T06:07:20;100346.91;;;10.69;88.23
57068;BME280;43391;47.448;18.904;2023-05-08T06:09:46;100341.56;;;10.72;88.32
57068;BME280;43391;47.448;18.904;2023-05-08T06:12:11;100346.59;;;10.76;87.61
57068;BME280;43391;47.448;18.904;2023-05-08T06:14:37;100349.00;;;10.81;86.58
57068;BME280;43391;47.448;18.904;2023-05-08T06:17:02;100352.88;;;10.93;85.20
57068;BME280;43391;47.448;18.904;2023-05-08T06:19:28;100348.22;;;11.01;84.63
57068;BME280;43391;47.448;18.904;2023-05-08T06:21:53;100348.03;;;11.06;82.83
57068;BME280;43391;47.448;18.904;2023-05-08T06:24:19;100351.22;;;11.13;83.71
57068;BME280;43391;47.448;18.904;2023-05-08T06:26:44;100357.69;;;11.25;82.03
57068;BME280;43391;47.448;18.904;2023-05-08T06:29:11;100350.91;;;11.21;81.94
57068;BME280;43391;47.448;18.904;2023-05-08T06:31:37;100344.81;;;11.22;79.71
57068;BME280;43391;47.448;18.904;2023-05-08T06:34:02;100355.00;;;11.26;78.82
57068;BME280;43391;47.448;18.904;2023-05-08T06:36:28;100355.28;;;11.41;78.45
57068;BME280;43391;47.448;18.904;2023-05-08T06:38:53;100356.00;;;11.45;77.94
57068;BME280;43391;47.448;18.904;2023-05-08T06:41:19;100360.03;;;11.52;78.32
57068;BME280;43391;47.448;18.904;2023-05-08T06:43:44;100358.16;;;11.55;77.96
57068;BME280;43391;47.448;18.904;2023-05-08T06:46:09;100359.63;;;11.61;76.74
57068;BME280;43391;47.448;18.904;2023-05-08T06:48:35;100357.75;;;11.65;76.71
57068;BME280;43391;47.448;18.904;2023-05-08T06:51:00;100355.94;;;11.67;75.90
57068;BME280;43391;47.448;18.904;2023-05-08T06:53:26;100361.84;;;11.70;74.75
57068;BME280;43391;47.448;18.904;2023-05-08T06:55:51;100362.09;;;11.85;73.99
57068;BME280;43391;47.448;18.904;2023-05-08T06:58:17;100365.47;;;11.87;74.16
57068;BME280;43391;47.448;18.904;2023-05-08T07:00:42;100369.22;;;12.01;73.53
57068;BME280;43391;47.448;18.904;2023-05-08T07:03:08;100370.66;;;12.08;72.60
57068;BME280;43391;47.448;18.904;2023-05-08T07:05:33;100370.31;;;12.16;72.79
57068;BME280;43391;47.448;18.904;2023-05-08T07:07:58;100370.44;;;12.33;71.94
57068;BME280;43391;47.448;18.904;2023-05-08T07:10:23;100374.13;;;12.47;69.47
57068;BME280;43391;47.448;18.904;2023-05-08T07:12:49;100380.59;;;12.57;68.40
57068;BME280;43391;47.448;18.904;2023-05-08T07:15:14;100371.38;;;12.69;69.73
57068;BME280;43391;47.448;18.904;2023-05-08T07:17:40;100383.00;;;12.81;68.92
57068;BME280;43391;47.448;18.904;2023-05-08T07:20:06;100385.94;;;12.93;66.06
57068;BME280;43391;47.448;18.904;2023-05-08T07:22:33;100375.13;;;13.00;65.78
57068;BME280;43391;47.448;18.904;2023-05-08T07:24:58;100381.53;;;13.12;66.33
57068;BME280;43391;47.448;18.904;2023-05-08T07:27:24;100377.84;;;13.34;66.27
57068;BME280;43391;47.448;18.904;2023-05-08T07:29:49;100381.59;;;13.28;64.56
57068;BME280;43391;47.448;18.904;2023-05-08T07:32:15;100379.69;;;13.14;64.54
57068;BME280;43391;47.448;18.904;2023-05-08T07:34:40;100376.34;;;12.93;64.63
57068;BME280;43391;47.448;18.904;2023-05-08T07:37:06;100382.25;;;12.97;65.14
57068;BME280;43391;47.448;18.904;2023-05-08T07:39:31;100377.38;;;13.08;63.96
57068;BME280;43391;47.448;18.904;2023-05-08T07:41:57;100378.53;;;13.38;63.90
57068;BME280;43391;47.448;18.904;2023-05-08T07:44:22;100373.84;;;13.80;65.21
57068;BME280;43391;47.448;18.904;2023-05-08T07:46:47;100373.69;;;14.17;63.24
57068;BME280;43391;47.448;18.904;2023-05-08T07:49:13;100383.13;;;13.86;60.33
57068;BME280;43391;47.448;18.904;2023-05-08T07:51:38;100372.03;;;13.82;64.21
57068;BME280;43391;47.448;18.904;2023-05-08T07:54:04;100379.78;;;13.84;63.89
57068;BME280;43391;47.448;18.904;2023-05-08T07:56:30;100379.66;;;14.03;62.68
57068;BME280;43391;47.448;18.904;2023-05-08T07:58:55;100380.97;;;14.28;62.15
57068;BME280;43391;47.448;18.904;2023-05-08T08:01:21;100377.59;;;14.42;59.93
57068;BME280;43391;47.448;18.904;2023-05-08T08:03:46;100376.84;;;14.56;59.08
57068;BME280;43391;47.448;18.904;2023-05-08T08:06:12;100381.16;;;14.57;57.64
57068;BME280;43391;47.448;18.904;2023-05-08T08:08:38;100378.97;;;14.65;57.26
57068;BME280;43391;47.448;18.904;2023-05-08T08:11:04;100379.25;;;14.77;59.68
57068;BME280;43391;47.448;18.904;2023-05-08T08:13:30;100374.47;;;14.99;58.68
57068;BME280;43391;47.448;18.904;2023-05-08T08:15:55;100375.56;;;15.11;56.43
57068;BME280;43391;47.448;18.904;2023-05-08T08:18:21;100377.50;;;15.08;57.51
57068;BME280;43391;47.448;18.904;2023-05-08T08:20:46;100377.28;;;15.27;57.72
57068;BME280;43391;47.448;18.904;2023-05-08T08:23:12;100377.78;;;15.34;57.84
57068;BME280;43391;47.448;18.904;2023-05-08T08:25:37;100370.72;;;15.50;58.00
57068;BME280;43391;47.448;18.904;2023-05-08T08:28:02;100372.63;;;15.77;56.32
57068;BME280;43391;47.448;18.904;2023-05-08T08:30:28;100372.91;;;15.73;54.90
57068;BME280;43391;47.448;18.904;2023-05-08T08:32:53;100362.50;;;15.57;57.13
57068;BME280;43391;47.448;18.904;2023-05-08T08:35:19;100379.50;;;15.64;56.83
57068;BME280;43391;47.448;18.904;2023-05-08T08:37:44;100375.34;;;15.90;55.57
57068;BME280;43391;47.448;18.904;2023-05-08T08:40:10;100373.50;;;16.07;54.57
57068;BME280;43391;47.448;18.904;2023-05-08T08:42:35;100369.94;;;16.08;52.02
57068;BME280;43391;47.448;18.904;2023-05-08T08:45:00;100369.94;;;16.23;53.71
57068;BME280;43391;47.448;18.904;2023-05-08T08:47:34;100375.47;;;16.03;54.52
57068;BME280;43391;47.448;18.904;2023-05-08T08:50:03;100374.53;;;16.33;52.67
57068;BME280;43391;47.448;18.904;2023-05-08T08:52:31;100372.59;;;16.65;51.67
57068;BME280;43391;47.448;18.904;2023-05-08T08:55:06;100380.09;;;16.84;50.97
57068;BME280;43391;47.448;18.904;2023-05-08T08:57:33;100383.13;;;17.05;52.64
57068;BME280;43391;47.448;18.904;2023-05-08T09:00:02;100379.22;;;17.25;50.59
57068;BME280;43391;47.448;18.904;2023-05-08T09:02:30;100371.03;;;17.30;49.45
57068;BME280;43391;47.448;18.904;2023-05-08T09:04:56;100382.06;;;17.48;50.72
57068;BME280;43391;47.448;18.904;2023-05-08T09:07:21;100380.00;;;17.66;49.92
57068;BME280;43391;47.448;18.904;2023-05-08T09:09:47;100382.09;;;17.61;49.49
57068;BME280;43391;47.448;18.904;2023-05-08T09:12:13;100381.13;;;17.75;49.93
57068;BME280;43391;47.448;18.904;2023-05-08T09:14:39;100374.31;;;17.86;47.82
57068;BME280;43391;47.448;18.904;2023-05-08T09:17:04;100371.88;;;17.96;48.60
57068;BME280;43391;47.448;18.904;2023-05-08T09:19:30;100378.94;;;18.08;47.56
57068;BME280;43391;47.448;18.904;2023-05-08T09:21:59;100375.69;;;18.04;45.72
57068;BME280;43391;47.448;18.904;2023-05-08T09:24:25;100377.03;;;17.97;46.62
57068;BME280;43391;47.448;18.904;2023-05-08T09:26:52;100371.56;;;18.26;45.29
57068;BME280;43391;47.448;18.904;2023-05-08T09:29:19;100366.94;;;18.30;44.34
57068;BME280;43391;47.448;18.904;2023-05-08T09:31:49;100364.38;;;18.41;46.05
57068;BME280;43391;47.448;18.904;2023-05-08T09:34:28;100363.72;;;18.51;46.19
57068;BME280;43391;47.448;18.904;2023-05-08T09:36:55;100372.94;;;18.56;46.07
57068;BME280;43391;47.448;18.904;2023-05-08T09:39:23;100366.19;;;18.65;42.63
57068;BME280;43391;47.448;18.904;2023-05-08T09:42:02;100369.38;;;18.57;44.56
57068;BME280;43391;47.448;18.904;2023-05-08T09:44:42;100372.31;;;18.53;41.88
57068;BME280;43391;47.448;18.904;2023-05-08T09:47:10;100359.88;;;18.68;42.37
57068;BME280;43391;47.448;18.904;2023-05-08T09:49:35;100358.75;;;18.83;41.95
57068;BME280;43391;47.448;18.904;2023-05-08T09:52:01;100360.69;;;18.93;41.45
57068;BME280;43391;47.448;18.904;2023-05-08T09:54:27;100357.06;;;19.07;41.65
57068;BME280;43391;47.448;18.904;2023-05-08T09:56:52;100359.25;;;19.13;40.24
57068;BME280;43391;47.448;18.904;2023-05-08T10:01:47;100351.72;;;19.20;42.01
57068;BME280;43391;47.448;18.904;2023-05-08T10:04:15;100356.38;;;19.16;40.52
57068;BME280;43391;47.448;18.904;2023-05-08T10:06:40;100348.34;;;19.06;39.55
57068;BME280;43391;47.448;18.904;2023-05-08T10:09:13;100345.34;;;19.11;39.98
57068;BME280;43391;47.448;18.904;2023-05-08T10:11:40;100351.06;;;19.05;40.30
57068;BME280;43391;47.448;18.904;2023-05-08T10:14:06;100350.16;;;19.17;38.83
57068;BME280;43391;47.448;18.904;2023-05-08T10:16:42;100346.31;;;19.10;39.76
57068;BME280;43391;47.448;18.904;2023-05-08T10:19:14;100344.44;;;19.23;38.70
57068;BME280;43391;47.448;18.904;2023-05-08T10:21:43;100341.25;;;19.31;39.30
57068;BME280;43391;47.448;18.904;2023-05-08T10:24:18;100331.53;;;19.32;38.92
57068;BME280;43391;47.448;18.904;2023-05-08T10:27:08;100342.06;;;19.32;39.63
57068;BME280;43391;47.448;18.904;2023-05-08T10:29:51;100342.94;;;19.44;38.30
57068;BME280;43391;47.448;18.904;2023-05-08T10:32:20;100333.47;;;19.52;37.87
57068;BME280;43391;47.448;18.904;2023-05-08T10:34:57;100322.72;;;19.67;37.72
57068;BME280;43391;47.448;18.904;2023-05-08T10:37:23;100335.31;;;19.86;37.60
57068;BME280;43391;47.448;18.904;2023-05-08T10:39:49;100322.63;;;20.03;36.97
57068;BME280;43391;47.448;18.904;2023-05-08T10:42:15;100324.88;;;19.85;36.89
57068;BME280;43391;47.448;18.904;2023-05-08T10:44:41;100332.56;;;19.99;36.83
57068;BME280;43391;47.448;18.904;2023-05-08T10:47:11;100328.00;;;20.24;35.40
57068;BME280;43391;47.448;18.904;2023-05-08T10:52:50;100326.34;;;20.56;34.03
57068;BME280;43391;47.448;18.904;2023-05-08T10:55:21;100320.91;;;20.36;34.07
57068;BME280;43391;47.448;18.904;2023-05-08T10:58:03;100323.13;;;20.52;34.95
57068;BME280;43391;47.448;18.904;2023-05-08T11:03:17;100324.41;;;20.69;33.60
57068;BME280;43391;47.448;18.904;2023-05-08T11:05:47;100323.88;;;20.87;34.48
57068;BME280;43391;47.448;18.904;2023-05-08T11:08:17;100317.13;;;20.94;34.11
57068;BME280;43391;47.448;18.904;2023-05-08T11:10:50;100316.94;;;21.07;32.79
57068;BME280;43391;47.448;18.904;2023-05-08T11:13:17;100306.81;;;20.91;34.14
57068;BME280;43391;47.448;18.904;2023-05-08T11:15:49;100309.72;;;21.09;34.14
57068;BME280;43391;47.448;18.904;2023-05-08T11:18:15;100308.97;;;21.19;34.06
57068;BME280;43391;47.448;18.904;2023-05-08T11:20:54;100303.59;;;21.30;34.46
57068;BME280;43391;47.448;18.904;2023-05-08T11:23:28;100308.69;;;21.22;33.33
57068;BME280;43391;47.448;18.904;2023-05-08T11:26:12;100301.94;;;21.08;32.85
57068;BME280;43391;47.448;18.904;2023-05-08T11:28:56;100309.19;;;21.16;33.63
57068;BME280;43391;47.448;18.904;2023-05-08T11:31:22;100292.91;;;21.32;32.95
57068;BME280;43391;47.448;18.904;2023-05-08T11:33:48;100311.50;;;21.30;32.32
57068;BME280;43391;47.448;18.904;2023-05-08T11:36:20;100312.28;;;21.21;31.17
57068;BME280;43391;47.448;18.904;2023-05-08T11:39:05;100307.97;;;21.20;32.81
57068;BME280;43391;47.448;18.904;2023-05-08T11:41:36;100292.91;;;21.32;31.19
57068;BME280;43391;47.448;18.904;2023-05-08T11:46:48;100291.66;;;21.67;29.30
57068;BME280;43391;47.448;18.904;2023-05-08T11:49:15;100290.66;;;21.58;31.40
57068;BME280;43391;47.448;18.904;2023-05-08T11:51:47;100295.03;;;21.69;30.64
57068;BME280;43391;47.448;18.904;2023-05-08T11:54:15;100292.44;;;21.79;30.61
57068;BME280;43391;47.448;18.904;2023-05-08T11:56:41;100294.97;;;21.81;31.56
57068;BME280;43391;47.448;18.904;2023-05-08T11:59:07;100301.09;;;21.91;31.63
57068;BME280;43391;47.448;18.904;2023-05-08T12:01:34;100293.63;;;22.06;31.07
57068;BME280;43391;47.448;18.904;2023-05-08T12:04:04;100297.97;;;22.27;30.93
57068;BME280;43391;47.448;18.904;2023-05-08T12:06:30;100291.88;;;22.26;30.85
57068;BME280;43391;47.448;18.904;2023-05-08T12:08:56;100291.28;;;22.23;32.06
57068;BME280;43391;47.448;18.904;2023-05-08T12:11:22;100287.44;;;22.37;30.91
57068;BME280;43391;47.448;18.904;2023-05-08T12:13:53;100290.75;;;22.29;30.74
57068;BME280;43391;47.448;18.904;2023-05-08T12:16:19;100291.03;;;22.36;30.23
57068;BME280;43391;47.448;18.904;2023-05-08T12:18:48;100285.34;;;22.50;30.65
57068;BME280;43391;47.448;18.904;2023-05-08T12:21:13;100288.72;;;22.62;29.65
57068;BME280;43391;47.448;18.904;2023-05-08T12:23:39;100291.47;;;22.51;29.00
57068;BME280;43391;47.448;18.904;2023-05-08T12:26:04;100292.03;;;22.45;28.35
57068;BME280;43391;47.448;18.904;2023-05-08T12:28:30;100286.72;;;22.25;28.14
57068;BME280;43391;47.448;18.904;2023-05-08T12:30:58;100292.28;;;22.41;28.92
57068;BME280;43391;47.448;18.904;2023-05-08T12:33:24;100282.03;;;22.68;29.42
57068;BME280;43391;47.448;18.904;2023-05-08T12:35:50;100282.44;;;22.63;29.13
57068;BME280;43391;47.448;18.904;2023-05-08T12:38:15;100291.38;;;22.62;31.78
57068;BME280;43391;47.448;18.904;2023-05-08T12:40:43;100297.75;;;22.50;30.18
57068;BME280;43391;47.448;18.904;2023-05-08T12:43:09;100299.00;;;22.55;32.41
57068;BME280;43391;47.448;18.904;2023-05-08T12:45:39;100296.38;;;22.75;30.96
57068;BME280;43391;47.448;18.904;2023-05-08T12:48:07;100294.66;;;23.04;30.47
57068;BME280;43391;47.448;18.904;2023-05-08T12:50:34;100296.56;;;23.31;30.42
57068;BME280;43391;47.448;18.904;2023-05-08T12:53:07;100291.59;;;23.56;30.11
57068;BME280;43391;47.448;18.904;2023-05-08T12:55:35;100288.53;;;23.61;30.54
57068;BME280;43391;47.448;18.904;2023-05-08T12:58:11;100299.56;;;23.56;29.62
57068;BME280;43391;47.448;18.904;2023-05-08T13:03:03;100293.97;;;23.12;28.14
57068;BME280;43391;47.448;18.904;2023-05-08T13:05:29;100289.94;;;22.88;29.07
57068;BME280;43391;47.448;18.904;2023-05-08T13:08:05;100296.38;;;22.95;29.72
57068;BME280;43391;47.448;18.904;2023-05-08T13:13:07;100289.47;;;23.42;29.76
57068;BME280;43391;47.448;18.904;2023-05-08T13:15:33;100291.72;;;23.17;27.97
57068;BME280;43391;47.448;18.904;2023-05-08T13:17:59;100296.38;;;22.95;28.81
57068;BME280;43391;47.448;18.904;2023-05-08T13:20:24;100281.81;;;23.19;28.87